sensor_id;sensor_type;location;lat;lon;timestamp;P1;durP1;ratioP1;P2;durP2;ratioP2
72569;SDS011;60594;50.204;8.844;2024-01-16T00:00:14;6.40;;;1.40;;
72569;SDS011;60594;50.204;8.844;2024-01-16T00:03:19;3.72;;;1.70;;
72569;SDS011;60594;50.204;8.844;2024-01-16T00:06:04;4.13;;;1.90;;
72569;SDS011;60594;50.204;8.844;2024-01-16T00:08:51;2.75;;;2.00;;
72569;SDS011;60594;50.204;8.844;2024-01-16T00:11:40;7.22;;;2.45;;
72569;SDS011;60594;50.204;8.844;2024-01-16T00:14:29;7.22;;;2.33;;
72569;SDS011;60594;50.204;8.844;2024-01-16T00:17:14;4.95;;;1.85;;
72569;SDS011;60594;50.204;8.844;2024-01-16T00:19:59;3.47;;;2.58;;
72569;SDS011;60594;50.204;8.844;2024-01-16T00:22:45;6.78;;;2.30;;
72569;SDS011;60594;50.204;8.844;2024-01-16T00:25:30;7.53;;;2.83;;
72569;SDS011;60594;50.204;8.844;2024-01-16T00:28:14;4.90;;;1.88;;
72569;SDS011;60594;50.204;8.844;2024-01-16T00:30:59;4.40;;;2.42;;
72569;SDS011;60594;50.204;8.844;2024-01-16T00:33:44;4.13;;;1.80;;
72569;SDS011;60594;50.204;8.844;2024-01-16T00:36:29;4.18;;;1.98;;
72569;SDS011;60594;50.204;8.844;2024-01-16T00:39:14;3.80;;;2.05;;
72569;SDS011;60594;50.204;8.844;2024-01-16T00:42:00;4.40;;;2.17;;
72569;SDS011;60594;50.204;8.844;2024-01-16T00:44:46;5.68;;;2.22;;
72569;SDS011;60594;50.204;8.844;2024-01-16T00:47:31;3.97;;;2.08;;
72569;SDS011;60594;50.204;8.844;2024-01-16T00:50:16;5.80;;;2.25;;
72569;SDS011;60594;50.204;8.844;2024-01-16T00:53:01;6.35;;;2.33;;
72569;SDS011;60594;50.204;8.844;2024-01-16T00:55:45;4.00;;;2.35;;
72569;SDS011;60594;50.204;8.844;2024-01-16T00:58:30;3.60;;;2.05;;
72569;SDS011;60594;50.204;8.844;2024-01-16T01:01:15;8.15;;;1.92;;
72569;SDS011;60594;50.204;8.844;2024-01-16T01:04:00;4.53;;;2.80;;
72569;SDS011;60594;50.204;8.844;2024-01-16T01:06:45;5.18;;;2.78;;
72569;SDS011;60594;50.204;8.844;2024-01-16T01:09:32;5.90;;;3.25;;
72569;SDS011;60594;50.204;8.844;2024-01-16T01:12:17;4.35;;;2.10;;
72569;SDS011;60594;50.204;8.844;2024-01-16T01:15:02;3.45;;;2.65;;
72569;SDS011;60594;50.204;8.844;2024-01-16T01:17:48;5.13;;;2.75;;
72569;SDS011;60594;50.204;8.844;2024-01-16T01:20:34;4.68;;;2.22;;
72569;SDS011;60594;50.204;8.844;2024-01-16T01:23:19;3.83;;;2.50;;
72569;SDS011;60594;50.204;8.844;2024-01-16T01:26:04;7.30;;;2.88;;
72569;SDS011;60594;50.204;8.844;2024-01-16T01:28:49;8.50;;;2.47;;
72569;SDS011;60594;50.204;8.844;2024-01-16T01:31:34;4.60;;;2.80;;
72569;SDS011;60594;50.204;8.844;2024-01-16T01:34:20;6.45;;;2.83;;
72569;SDS011;60594;50.204;8.844;2024-01-16T01:37:04;10.30;;;3.10;;
72569;SDS011;60594;50.204;8.844;2024-01-16T01:39:49;5.03;;;2.20;;
72569;SDS011;60594;50.204;8.844;2024-01-16T01:42:34;5.15;;;3.03;;
72569;SDS011;60594;50.204;8.844;2024-01-16T01:45:19;3.92;;;2.20;;
72569;SDS011;60594;50.204;8.844;2024-01-16T01:48:04;5.05;;;2.78;;
72569;SDS011;60594;50.204;8.844;2024-01-16T01:50:51;7.57;;;2.95;;
72569;SDS011;60594;50.204;8.844;2024-01-16T01:53:36;3.95;;;2.80;;
72569;SDS011;60594;50.204;8.844;2024-01-16T01:56:22;5.43;;;2.83;;
72569;SDS011;60594;50.204;8.844;2024-01-16T01:59:08;6.18;;;2.75;;
72569;SDS011;60594;50.204;8.844;2024-01-16T02:01:53;5.57;;;2.50;;
72569;SDS011;60594;50.204;8.844;2024-01-16T02:04:38;7.05;;;3.20;;
72569;SDS011;60594;50.204;8.844;2024-01-16T02:07:25;4.38;;;2.65;;
72569;SDS011;60594;50.204;8.844;2024-01-16T02:10:10;4.38;;;3.00;;
72569;SDS011;60594;50.204;8.844;2024-01-16T02:12:55;3.70;;;2.20;;
72569;SDS011;60594;50.204;8.844;2024-01-16T02:15:40;3.63;;;2.58;;
72569;SDS011;60594;50.204;8.844;2024-01-16T02:18:25;5.18;;;2.63;;
72569;SDS011;60594;50.204;8.844;2024-01-16T02:21:11;4.55;;;1.60;;
72569;SDS011;60594;50.204;8.844;2024-01-16T02:23:57;6.20;;;3.05;;
72569;SDS011;60594;50.204;8.844;2024-01-16T02:26:42;9.32;;;3.97;;
72569;SDS011;60594;50.204;8.844;2024-01-16T02:29:27;5.53;;;3.67;;
72569;SDS011;60594;50.204;8.844;2024-01-16T02:32:13;5.82;;;3.00;;
72569;SDS011;60594;50.204;8.844;2024-01-16T02:34:58;7.03;;;3.00;;
72569;SDS011;60594;50.204;8.844;2024-01-16T02:37:44;4.45;;;2.72;;
72569;SDS011;60594;50.204;8.844;2024-01-16T02:40:28;4.82;;;2.95;;
72569;SDS011;60594;50.204;8.844;2024-01-16T02:43:13;6.40;;;3.08;;
72569;SDS011;60594;50.204;8.844;2024-01-16T02:45:58;6.65;;;3.88;;
72569;SDS011;60594;50.204;8.844;2024-01-16T02:48:43;6.28;;;3.50;;
72569;SDS011;60594;50.204;8.844;2024-01-16T02:51:29;4.28;;;2.80;;
72569;SDS011;60594;50.204;8.844;2024-01-16T02:54:14;6.45;;;3.80;;
72569;SDS011;60594;50.204;8.844;2024-01-16T02:56:59;6.53;;;3.55;;
72569;SDS011;60594;50.204;8.844;2024-01-16T02:59:44;5.53;;;3.08;;
72569;SDS011;60594;50.204;8.844;2024-01-16T03:02:29;6.65;;;3.65;;
72569;SDS011;60594;50.204;8.844;2024-01-16T03:05:15;6.07;;;3.90;;
72569;SDS011;60594;50.204;8.844;2024-01-16T03:07:59;7.25;;;3.60;;
72569;SDS011;60594;50.204;8.844;2024-01-16T03:10:45;4.22;;;2.72;;
72569;SDS011;60594;50.204;8.844;2024-01-16T03:13:29;8.52;;;3.38;;
72569;SDS011;60594;50.204;8.844;2024-01-16T03:16:15;5.65;;;3.10;;
72569;SDS011;60594;50.204;8.844;2024-01-16T03:19:00;7.93;;;3.45;;
72569;SDS011;60594;50.204;8.844;2024-01-16T03:21:45;5.93;;;3.63;;
72569;SDS011;60594;50.204;8.844;2024-01-16T03:24:30;7.50;;;4.45;;
72569;SDS011;60594;50.204;8.844;2024-01-16T03:27:15;7.05;;;3.00;;
72569;SDS011;60594;50.204;8.844;2024-01-16T03:30:01;7.78;;;3.97;;
72569;SDS011;60594;50.204;8.844;2024-01-16T03:32:47;8.65;;;4.03;;
72569;SDS011;60594;50.204;8.844;2024-01-16T03:35:31;5.25;;;3.30;;
72569;SDS011;60594;50.204;8.844;2024-01-16T03:38:17;9.25;;;3.72;;
72569;SDS011;60594;50.204;8.844;2024-01-16T03:41:02;7.18;;;3.65;;
72569;SDS011;60594;50.204;8.844;2024-01-16T03:43:52;6.88;;;3.60;;
72569;SDS011;60594;50.204;8.844;2024-01-16T03:46:39;6.63;;;3.40;;
72569;SDS011;60594;50.204;8.844;2024-01-16T03:49:24;7.65;;;3.50;;
72569;SDS011;60594;50.204;8.844;2024-01-16T03:52:10;4.88;;;3.45;;
72569;SDS011;60594;50.204;8.844;2024-01-16T03:54:55;5.05;;;2.90;;
72569;SDS011;60594;50.204;8.844;2024-01-16T03:57:40;7.22;;;3.42;;
72569;SDS011;60594;50.204;8.844;2024-01-16T04:00:25;8.70;;;3.55;;
72569;SDS011;60594;50.204;8.844;2024-01-16T04:03:10;7.60;;;3.35;;
72569;SDS011;60594;50.204;8.844;2024-01-16T04:05:56;7.28;;;3.70;;
72569;SDS011;60594;50.204;8.844;2024-01-16T04:08:40;7.13;;;3.80;;
72569;SDS011;60594;50.204;8.844;2024-01-16T04:11:25;5.07;;;3.75;;
72569;SDS011;60594;50.204;8.844;2024-01-16T04:14:10;8.38;;;3.63;;
72569;SDS011;60594;50.204;8.844;2024-01-16T04:16:56;5.78;;;3.55;;
72569;SDS011;60594;50.204;8.844;2024-01-16T04:19:41;5.63;;;3.42;;
72569;SDS011;60594;50.204;8.844;2024-01-16T04:22:26;5.93;;;3.50;;
72569;SDS011;60594;50.204;8.844;2024-01-16T04:25:11;8.02;;;3.92;;
72569;SDS011;60594;50.204;8.844;2024-01-16T04:27:56;6.30;;;3.13;;
72569;SDS011;60594;50.204;8.844;2024-01-16T04:30:40;5.13;;;3.45;;
72569;SDS011;60594;50.204;8.844;2024-01-16T04:33:25;5.18;;;3.25;;
72569;SDS011;60594;50.204;8.844;2024-01-16T04:36:10;4.82;;;3.30;;
72569;SDS011;60594;50.204;8.844;2024-01-16T04:38:55;5.10;;;3.05;;
72569;SDS011;60594;50.204;8.844;2024-01-16T04:41:41;11.10;;;3.60;;
72569;SDS011;60594;50.204;8.844;2024-01-16T04:44:25;4.90;;;3.20;;
72569;SDS011;60594;50.204;8.844;2024-01-16T04:47:10;6.65;;;3.63;;
72569;SDS011;60594;50.204;8.844;2024-01-16T04:49:56;6.18;;;2.08;;
72569;SDS011;60594;50.204;8.844;2024-01-16T04:52:42;5.50;;;4.00;;
72569;SDS011;60594;50.204;8.844;2024-01-16T04:55:28;4.97;;;2.80;;
72569;SDS011;60594;50.204;8.844;2024-01-16T04:58:13;5.60;;;3.30;;
72569;SDS011;60594;50.204;8.844;2024-01-16T05:00:58;6.03;;;3.00;;
72569;SDS011;60594;50.204;8.844;2024-01-16T05:03:43;6.75;;;3.17;;
72569;SDS011;60594;50.204;8.844;2024-01-16T05:06:28;6.47;;;3.17;;
72569;SDS011;60594;50.204;8.844;2024-01-16T05:09:14;9.32;;;3.50;;
72569;SDS011;60594;50.204;8.844;2024-01-16T05:11:59;5.47;;;2.78;;
72569;SDS011;60594;50.204;8.844;2024-01-16T05:14:44;8.95;;;3.78;;
72569;SDS011;60594;50.204;8.844;2024-01-16T05:17:30;7.38;;;3.63;;
72569;SDS011;60594;50.204;8.844;2024-01-16T05:20:14;7.50;;;3.55;;
72569;SDS011;60594;50.204;8.844;2024-01-16T05:22:59;6.40;;;2.92;;
72569;SDS011;60594;50.204;8.844;2024-01-16T05:25:44;8.00;;;4.32;;
72569;SDS011;60594;50.204;8.844;2024-01-16T05:28:30;5.15;;;3.10;;
72569;SDS011;60594;50.204;8.844;2024-01-16T05:31:14;7.20;;;3.88;;
72569;SDS011;60594;50.204;8.844;2024-01-16T05:34:00;6.03;;;3.83;;
72569;SDS011;60594;50.204;8.844;2024-01-16T05:36:45;10.07;;;3.53;;
72569;SDS011;60594;50.204;8.844;2024-01-16T05:39:30;11.45;;;3.67;;
72569;SDS011;60594;50.204;8.844;2024-01-16T05:42:17;6.80;;;3.28;;
72569;SDS011;60594;50.204;8.844;2024-01-16T05:45:02;12.95;;;3.63;;
72569;SDS011;60594;50.204;8.844;2024-01-16T05:47:48;6.05;;;3.72;;
72569;SDS011;60594;50.204;8.844;2024-01-16T05:50:34;6.38;;;3.95;;
72569;SDS011;60594;50.204;8.844;2024-01-16T05:53:19;7.45;;;4.35;;
72569;SDS011;60594;50.204;8.844;2024-01-16T05:56:04;12.63;;;3.85;;
72569;SDS011;60594;50.204;8.844;2024-01-16T05:58:49;8.93;;;3.20;;
72569;SDS011;60594;50.204;8.844;2024-01-16T06:01:34;7.72;;;4.43;;
72569;SDS011;60594;50.204;8.844;2024-01-16T06:04:18;9.40;;;3.72;;
72569;SDS011;60594;50.204;8.844;2024-01-16T06:07:04;10.10;;;3.72;;
72569;SDS011;60594;50.204;8.844;2024-01-16T06:09:51;6.55;;;3.88;;
72569;SDS011;60594;50.204;8.844;2024-01-16T06:12:36;7.00;;;4.07;;
72569;SDS011;60594;50.204;8.844;2024-01-16T06:15:21;8.77;;;4.47;;
72569;SDS011;60594;50.204;8.844;2024-01-16T06:18:06;5.68;;;3.60;;
72569;SDS011;60594;50.204;8.844;2024-01-16T06:20:52;7.00;;;3.47;;
72569;SDS011;60594;50.204;8.844;2024-01-16T06:23:37;6.53;;;4.00;;
72569;SDS011;60594;50.204;8.844;2024-01-16T06:26:22;13.13;;;4.03;;
72569;SDS011;60594;50.204;8.844;2024-01-16T06:29:08;7.68;;;3.63;;
72569;SDS011;60594;50.204;8.844;2024-01-16T06:31:52;8.52;;;3.75;;
72569;SDS011;60594;50.204;8.844;2024-01-16T06:34:38;6.65;;;4.03;;
72569;SDS011;60594;50.204;8.844;2024-01-16T06:37:23;8.38;;;4.25;;
72569;SDS011;60594;50.204;8.844;2024-01-16T06:40:08;12.32;;;4.05;;
72569;SDS011;60594;50.204;8.844;2024-01-16T06:42:53;16.20;;;4.15;;
72569;SDS011;60594;50.204;8.844;2024-01-16T06:45:39;7.70;;;3.65;;
72569;SDS011;60594;50.204;8.844;2024-01-16T06:48:23;7.78;;;3.83;;
72569;SDS011;60594;50.204;8.844;2024-01-16T06:51:09;6.97;;;3.88;;
72569;SDS011;60594;50.204;8.844;2024-01-16T06:53:55;6.07;;;4.45;;
72569;SDS011;60594;50.204;8.844;2024-01-16T06:56:40;5.53;;;3.67;;
72569;SDS011;60594;50.204;8.844;2024-01-16T06:59:25;7.40;;;4.03;;
72569;SDS011;60594;50.204;8.844;2024-01-16T07:02:10;6.88;;;3.25;;
72569;SDS011;60594;50.204;8.844;2024-01-16T07:04:55;8.40;;;3.38;;
72569;SDS011;60594;50.204;8.844;2024-01-16T07:07:40;7.80;;;3.97;;
72569;SDS011;60594;50.204;8.844;2024-01-16T07:10:25;4.75;;;3.35;;
72569;SDS011;60594;50.204;8.844;2024-01-16T07:13:10;8.20;;;4.50;;
72569;SDS011;60594;50.204;8.844;2024-01-16T07:15:57;7.97;;;3.67;;
72569;SDS011;60594;50.204;8.844;2024-01-16T07:18:42;8.75;;;4.55;;
72569;SDS011;60594;50.204;8.844;2024-01-16T07:21:26;6.70;;;4.00;;
72569;SDS011;60594;50.204;8.844;2024-01-16T07:24:12;8.30;;;4.80;;
72569;SDS011;60594;50.204;8.844;2024-01-16T07:26:58;11.15;;;4.72;;
72569;SDS011;60594;50.204;8.844;2024-01-16T07:29:43;5.30;;;3.70;;
72569;SDS011;60594;50.204;8.844;2024-01-16T07:32:28;4.50;;;3.13;;
72569;SDS011;60594;50.204;8.844;2024-01-16T07:35:13;8.50;;;4.20;;
72569;SDS011;60594;50.204;8.844;2024-01-16T07:37:58;8.73;;;4.53;;
72569;SDS011;60594;50.204;8.844;2024-01-16T07:40:43;7.95;;;4.35;;
72569;SDS011;60594;50.204;8.844;2024-01-16T07:43:28;9.05;;;5.18;;
72569;SDS011;60594;50.204;8.844;2024-01-16T07:46:15;7.07;;;4.20;;
72569;SDS011;60594;50.204;8.844;2024-01-16T07:49:00;7.35;;;4.13;;
72569;SDS011;60594;50.204;8.844;2024-01-16T07:51:45;8.23;;;5.15;;
72569;SDS011;60594;50.204;8.844;2024-01-16T07:54:30;7.30;;;4.53;;
72569;SDS011;60594;50.204;8.844;2024-01-16T07:57:15;11.68;;;5.13;;
72569;SDS011;60594;50.204;8.844;2024-01-16T08:00:00;8.63;;;4.85;;
72569;SDS011;60594;50.204;8.844;2024-01-16T08:02:46;11.50;;;5.63;;
72569;SDS011;60594;50.204;8.844;2024-01-16T08:05:30;6.88;;;4.03;;
72569;SDS011;60594;50.204;8.844;2024-01-16T08:08:16;8.40;;;4.75;;
72569;SDS011;60594;50.204;8.844;2024-01-16T08:11:01;8.00;;;3.85;;
72569;SDS011;60594;50.204;8.844;2024-01-16T08:13:46;11.88;;;4.22;;
72569;SDS011;60594;50.204;8.844;2024-01-16T08:16:30;6.00;;;3.65;;
72569;SDS011;60594;50.204;8.844;2024-01-16T08:19:15;7.78;;;4.05;;
72569;SDS011;60594;50.204;8.844;2024-01-16T08:22:00;7.45;;;4.43;;
72569;SDS011;60594;50.204;8.844;2024-01-16T08:24:47;7.05;;;3.60;;
72569;SDS011;60594;50.204;8.844;2024-01-16T08:27:32;7.40;;;4.28;;
72569;SDS011;60594;50.204;8.844;2024-01-16T08:30:17;8.20;;;4.38;;
72569;SDS011;60594;50.204;8.844;2024-01-16T08:33:02;8.70;;;4.55;;
72569;SDS011;60594;50.204;8.844;2024-01-16T08:35:47;11.50;;;4.85;;
72569;SDS011;60594;50.204;8.844;2024-01-16T08:38:32;8.77;;;4.43;;
72569;SDS011;60594;50.204;8.844;2024-01-16T08:41:17;8.82;;;4.35;;
72569;SDS011;60594;50.204;8.844;2024-01-16T08:44:03;8.80;;;4.10;;
72569;SDS011;60594;50.204;8.844;2024-01-16T08:46:49;10.75;;;4.30;;
72569;SDS011;60594;50.204;8.844;2024-01-16T08:49:33;10.65;;;3.53;;
72569;SDS011;60594;50.204;8.844;2024-01-16T08:52:18;7.10;;;4.43;;
72569;SDS011;60594;50.204;8.844;2024-01-16T08:55:04;9.38;;;4.88;;
72569;SDS011;60594;50.204;8.844;2024-01-16T08:57:49;9.15;;;4.85;;
72569;SDS011;60594;50.204;8.844;2024-01-16T09:00:34;7.43;;;4.13;;
72569;SDS011;60594;50.204;8.844;2024-01-16T09:03:19;10.90;;;5.07;;
72569;SDS011;60594;50.204;8.844;2024-01-16T09:06:04;7.65;;;4.70;;
72569;SDS011;60594;50.204;8.844;2024-01-16T09:08:49;11.07;;;5.60;;
72569;SDS011;60594;50.204;8.844;2024-01-16T09:11:34;10.85;;;4.10;;
72569;SDS011;60594;50.204;8.844;2024-01-16T09:14:19;9.57;;;5.20;;
72569;SDS011;60594;50.204;8.844;2024-01-16T09:17:05;7.82;;;4.25;;
72569;SDS011;60594;50.204;8.844;2024-01-16T09:19:50;8.68;;;4.70;;
72569;SDS011;60594;50.204;8.844;2024-01-16T09:22:35;10.88;;;5.53;;
72569;SDS011;60594;50.204;8.844;2024-01-16T09:25:20;9.98;;;5.30;;
72569;SDS011;60594;50.204;8.844;2024-01-16T09:28:08;10.98;;;5.88;;
72569;SDS011;60594;50.204;8.844;2024-01-16T09:30:52;10.27;;;5.25;;
72569;SDS011;60594;50.204;8.844;2024-01-16T09:33:40;10.63;;;4.78;;
72569;SDS011;60594;50.204;8.844;2024-01-16T09:36:25;9.07;;;5.07;;
72569;SDS011;60594;50.204;8.844;2024-01-16T09:39:10;9.63;;;4.47;;
72569;SDS011;60594;50.204;8.844;2024-01-16T09:42:01;13.27;;;5.63;;
72569;SDS011;60594;50.204;8.844;2024-01-16T09:44:47;8.00;;;4.93;;
72569;SDS011;60594;50.204;8.844;2024-01-16T09:47:33;8.95;;;5.45;;
72569;SDS011;60594;50.204;8.844;2024-01-16T09:50:19;12.98;;;5.60;;
72569;SDS011;60594;50.204;8.844;2024-01-16T09:53:04;8.85;;;5.32;;
72569;SDS011;60594;50.204;8.844;2024-01-16T09:55:49;8.45;;;5.07;;
72569;SDS011;60594;50.204;8.844;2024-01-16T09:58:38;8.82;;;4.70;;
72569;SDS011;60594;50.204;8.844;2024-01-16T10:01:23;10.15;;;5.25;;
72569;SDS011;60594;50.204;8.844;2024-01-16T10:04:11;8.90;;;4.50;;
72569;SDS011;60594;50.204;8.844;2024-01-16T10:06:56;8.73;;;4.72;;
72569;SDS011;60594;50.204;8.844;2024-01-16T10:09:43;10.95;;;4.65;;
72569;SDS011;60594;50.204;8.844;2024-01-16T10:12:28;10.77;;;5.15;;
72569;SDS011;60594;50.204;8.844;2024-01-16T10:15:13;8.98;;;5.22;;
72569;SDS011;60594;50.204;8.844;2024-01-16T10:17:59;10.18;;;5.40;;
72569;SDS011;60594;50.204;8.844;2024-01-16T10:20:45;7.80;;;4.35;;
72569;SDS011;60594;50.204;8.844;2024-01-16T10:23:30;8.40;;;5.22;;
72569;SDS011;60594;50.204;8.844;2024-01-16T10:29:05;9.68;;;5.38;;
72569;SDS011;60594;50.204;8.844;2024-01-16T10:31:50;11.23;;;5.18;;
72569;SDS011;60594;50.204;8.844;2024-01-16T10:34:35;11.65;;;5.15;;
72569;SDS011;60594;50.204;8.844;2024-01-16T10:37:20;7.55;;;5.03;;
72569;SDS011;60594;50.204;8.844;2024-01-16T10:40:05;9.57;;;4.75;;
72569;SDS011;60594;50.204;8.844;2024-01-16T10:42:59;11.23;;;4.63;;
72569;SDS011;60594;50.204;8.844;2024-01-16T10:45:45;11.13;;;5.30;;
72569;SDS011;60594;50.204;8.844;2024-01-16T10:48:30;7.60;;;4.50;;
72569;SDS011;60594;50.204;8.844;2024-01-16T10:51:15;10.50;;;5.45;;
72569;SDS011;60594;50.204;8.844;2024-01-16T10:54:02;9.27;;;3.90;;
72569;SDS011;60594;50.204;8.844;2024-01-16T10:56:50;8.88;;;4.65;;
72569;SDS011;60594;50.204;8.844;2024-01-16T10:59:38;9.07;;;4.40;;
72569;SDS011;60594;50.204;8.844;2024-01-16T11:02:29;10.65;;;4.72;;
72569;SDS011;60594;50.204;8.844;2024-01-16T11:05:28;11.18;;;6.30;;
72569;SDS011;60594;50.204;8.844;2024-01-16T11:08:15;9.57;;;4.65;;
72569;SDS011;60594;50.204;8.844;2024-01-16T11:11:02;8.90;;;4.85;;
72569;SDS011;60594;50.204;8.844;2024-01-16T11:13:48;7.53;;;3.20;;
72569;SDS011;60594;50.204;8.844;2024-01-16T11:16:34;9.00;;;3.75;;
72569;SDS011;60594;50.204;8.844;2024-01-16T11:19:19;5.97;;;2.97;;
72569;SDS011;60594;50.204;8.844;2024-01-16T11:22:05;7.05;;;4.03;;
72569;SDS011;60594;50.204;8.844;2024-01-16T11:27:55;7.95;;;4.75;;
72569;SDS011;60594;50.204;8.844;2024-01-16T11:30:52;9.05;;;4.95;;
72569;SDS011;60594;50.204;8.844;2024-01-16T11:37:04;8.90;;;5.18;;
72569;SDS011;60594;50.204;8.844;2024-01-16T11:39:39;11.00;;;5.32;;
72569;SDS011;60594;50.204;8.844;2024-01-16T11:42:25;8.00;;;4.43;;
72569;SDS011;60594;50.204;8.844;2024-01-16T11:48:12;8.25;;;5.07;;
72569;SDS011;60594;50.204;8.844;2024-01-16T11:50:58;9.05;;;4.30;;
72569;SDS011;60594;50.204;8.844;2024-01-16T11:53:43;7.10;;;4.72;;
72569;SDS011;60594;50.204;8.844;2024-01-16T11:56:35;7.70;;;5.07;;
72569;SDS011;60594;50.204;8.844;2024-01-16T12:05:29;7.63;;;5.03;;
72569;SDS011;60594;50.204;8.844;2024-01-16T12:08:20;9.45;;;4.85;;
72569;SDS011;60594;50.204;8.844;2024-01-16T12:11:06;8.07;;;4.93;;
72569;SDS011;60594;50.204;8.844;2024-01-16T12:14:04;9.85;;;3.90;;
72569;SDS011;60594;50.204;8.844;2024-01-16T12:16:48;8.45;;;5.22;;
72569;SDS011;60594;50.204;8.844;2024-01-16T12:19:33;9.00;;;5.40;;
72569;SDS011;60594;50.204;8.844;2024-01-16T12:22:19;8.25;;;4.80;;
72569;SDS011;60594;50.204;8.844;2024-01-16T12:25:07;8.75;;;4.75;;
72569;SDS011;60594;50.204;8.844;2024-01-16T12:28:04;7.55;;;4.43;;
72569;SDS011;60594;50.204;8.844;2024-01-16T12:30:51;9.63;;;4.57;;
72569;SDS011;60594;50.204;8.844;2024-01-16T12:33:36;6.97;;;4.43;;
72569;SDS011;60594;50.204;8.844;2024-01-16T12:36:21;6.93;;;3.80;;
72569;SDS011;60594;50.204;8.844;2024-01-16T12:39:07;8.82;;;4.32;;
72569;SDS011;60594;50.204;8.844;2024-01-16T12:41:56;6.88;;;4.03;;
72569;SDS011;60594;50.204;8.844;2024-01-16T12:44:41;8.02;;;4.32;;
72569;SDS011;60594;50.204;8.844;2024-01-16T12:47:26;6.68;;;4.50;;
72569;SDS011;60594;50.204;8.844;2024-01-16T12:50:11;10.10;;;3.90;;
72569;SDS011;60594;50.204;8.844;2024-01-16T12:53:07;7.00;;;4.35;;
72569;SDS011;60594;50.204;8.844;2024-01-16T12:55:59;9.30;;;4.20;;
72569;SDS011;60594;50.204;8.844;2024-01-16T12:58:47;8.82;;;4.53;;
72569;SDS011;60594;50.204;8.844;2024-01-16T13:01:31;8.90;;;4.53;;
72569;SDS011;60594;50.204;8.844;2024-01-16T13:04:17;12.25;;;4.20;;
72569;SDS011;60594;50.204;8.844;2024-01-16T13:07:04;7.47;;;4.47;;
72569;SDS011;60594;50.204;8.844;2024-01-16T13:10:08;10.02;;;4.18;;
72569;SDS011;60594;50.204;8.844;2024-01-16T13:13:15;6.53;;;4.63;;
72569;SDS011;60594;50.204;8.844;2024-01-16T13:16:02;8.45;;;4.63;;
72569;SDS011;60594;50.204;8.844;2024-01-16T13:18:59;9.40;;;3.95;;
72569;SDS011;60594;50.204;8.844;2024-01-16T13:21:46;8.25;;;3.63;;
72569;SDS011;60594;50.204;8.844;2024-01-16T13:24:32;7.65;;;4.22;;
72569;SDS011;60594;50.204;8.844;2024-01-16T13:27:17;9.18;;;4.15;;
72569;SDS011;60594;50.204;8.844;2024-01-16T13:30:01;8.07;;;4.82;;
72569;SDS011;60594;50.204;8.844;2024-01-16T13:32:47;8.15;;;4.57;;
72569;SDS011;60594;50.204;8.844;2024-01-16T13:35:34;7.70;;;4.07;;
72569;SDS011;60594;50.204;8.844;2024-01-16T13:38:25;8.95;;;4.30;;
72569;SDS011;60594;50.204;8.844;2024-01-16T13:41:10;8.25;;;3.90;;
72569;SDS011;60594;50.204;8.844;2024-01-16T13:43:56;10.20;;;4.63;;
72569;SDS011;60594;50.204;8.844;2024-01-16T13:46:41;10.52;;;4.85;;
72569;SDS011;60594;50.204;8.844;2024-01-16T13:49:26;7.93;;;4.40;;
72569;SDS011;60594;50.204;8.844;2024-01-16T13:52:11;9.32;;;4.13;;
72569;SDS011;60594;50.204;8.844;2024-01-16T13:54:56;8.10;;;3.60;;
72569;SDS011;60594;50.204;8.844;2024-01-16T13:57:42;8.43;;;4.63;;
72569;SDS011;60594;50.204;8.844;2024-01-16T14:00:27;7.53;;;4.55;;
72569;SDS011;60594;50.204;8.844;2024-01-16T14:03:11;9.10;;;4.82;;
72569;SDS011;60594;50.204;8.844;2024-01-16T14:05:57;7.72;;;3.92;;
72569;SDS011;60594;50.204;8.844;2024-01-16T14:08:41;7.22;;;4.10;;
72569;SDS011;60594;50.204;8.844;2024-01-16T14:11:27;5.80;;;2.70;;
72569;SDS011;60594;50.204;8.844;2024-01-16T14:14:12;6.78;;;3.67;;
72569;SDS011;60594;50.204;8.844;2024-01-16T14:16:58;10.27;;;4.38;;
72569;SDS011;60594;50.204;8.844;2024-01-16T14:19:42;7.80;;;3.58;;
72569;SDS011;60594;50.204;8.844;2024-01-16T14:22:28;6.25;;;4.28;;
72569;SDS011;60594;50.204;8.844;2024-01-16T14:25:13;6.95;;;3.90;;
72569;SDS011;60594;50.204;8.844;2024-01-16T14:28:00;11.20;;;4.13;;
72569;SDS011;60594;50.204;8.844;2024-01-16T14:30:49;6.75;;;3.75;;
72569;SDS011;60594;50.204;8.844;2024-01-16T14:33:35;9.25;;;4.45;;
72569;SDS011;60594;50.204;8.844;2024-01-16T14:36:20;7.50;;;3.92;;
72569;SDS011;60594;50.204;8.844;2024-01-16T14:39:05;10.80;;;4.50;;
72569;SDS011;60594;50.204;8.844;2024-01-16T14:41:50;7.55;;;4.50;;
72569;SDS011;60594;50.204;8.844;2024-01-16T14:44:36;9.48;;;4.47;;
72569;SDS011;60594;50.204;8.844;2024-01-16T14:47:20;7.20;;;4.10;;
72569;SDS011;60594;50.204;8.844;2024-01-16T14:50:08;9.50;;;3.45;;
72569;SDS011;60594;50.204;8.844;2024-01-16T14:52:54;8.10;;;4.22;;
72569;SDS011;60594;50.204;8.844;2024-01-16T14:55:39;8.25;;;3.85;;
72569;SDS011;60594;50.204;8.844;2024-01-16T14:58:24;11.40;;;4.50;;
72569;SDS011;60594;50.204;8.844;2024-01-16T15:01:09;7.03;;;4.20;;
72569;SDS011;60594;50.204;8.844;2024-01-16T15:03:55;6.78;;;3.65;;
72569;SDS011;60594;50.204;8.844;2024-01-16T15:06:42;7.05;;;3.75;;
72569;SDS011;60594;50.204;8.844;2024-01-16T15:09:27;5.65;;;3.78;;
72569;SDS011;60594;50.204;8.844;2024-01-16T15:12:12;7.65;;;4.10;;
72569;SDS011;60594;50.204;8.844;2024-01-16T15:14:57;7.97;;;4.25;;
72569;SDS011;60594;50.204;8.844;2024-01-16T15:17:43;8.57;;;4.30;;
72569;SDS011;60594;50.204;8.844;2024-01-16T15:20:28;8.20;;;4.60;;
72569;SDS011;60594;50.204;8.844;2024-01-16T15:23:13;10.00;;;4.28;;
72569;SDS011;60594;50.204;8.844;2024-01-16T15:25:58;9.32;;;4.38;;
72569;SDS011;60594;50.204;8.844;2024-01-16T15:28:47;9.93;;;4.57;;
72569;SDS011;60594;50.204;8.844;2024-01-16T15:31:32;9.00;;;4.20;;
72569;SDS011;60594;50.204;8.844;2024-01-16T15:34:18;8.63;;;4.25;;
72569;SDS011;60594;50.204;8.844;2024-01-16T15:37:03;7.18;;;3.72;;
72569;SDS011;60594;50.204;8.844;2024-01-16T15:39:48;10.02;;;4.38;;
72569;SDS011;60594;50.204;8.844;2024-01-16T15:42:33;8.05;;;4.38;;
72569;SDS011;60594;50.204;8.844;2024-01-16T15:45:21;8.55;;;4.43;;
72569;SDS011;60594;50.204;8.844;2024-01-16T15:48:05;8.18;;;4.47;;
72569;SDS011;60594;50.204;8.844;2024-01-16T15:50:52;10.30;;;4.25;;
72569;SDS011;60594;50.204;8.844;2024-01-16T15:53:37;7.70;;;4.68;;
72569;SDS011;60594;50.204;8.844;2024-01-16T15:56:22;8.13;;;4.70;;
72569;SDS011;60594;50.204;8.844;2024-01-16T15:59:08;10.57;;;4.38;;
72569;SDS011;60594;50.204;8.844;2024-01-16T16:01:55;8.45;;;4.22;;
72569;SDS011;60594;50.204;8.844;2024-01-16T16:04:40;6.85;;;4.07;;
72569;SDS011;60594;50.204;8.844;2024-01-16T16:07:26;11.45;;;4.25;;
72569;SDS011;60594;50.204;8.844;2024-01-16T16:10:10;11.10;;;4.57;;
72569;SDS011;60594;50.204;8.844;2024-01-16T16:12:56;10.60;;;4.28;;
72569;SDS011;60594;50.204;8.844;2024-01-16T16:15:40;9.93;;;4.30;;
72569;SDS011;60594;50.204;8.844;2024-01-16T16:18:26;7.43;;;4.25;;
72569;SDS011;60594;50.204;8.844;2024-01-16T16:21:11;9.20;;;4.25;;
72569;SDS011;60594;50.204;8.844;2024-01-16T16:23:57;8.38;;;3.88;;
72569;SDS011;60594;50.204;8.844;2024-01-16T16:26:41;7.97;;;4.22;;
72569;SDS011;60594;50.204;8.844;2024-01-16T16:29:28;8.00;;;3.97;;
72569;SDS011;60594;50.204;8.844;2024-01-16T16:32:12;6.97;;;4.20;;
72569;SDS011;60594;50.204;8.844;2024-01-16T16:34:57;11.15;;;5.20;;
72569;SDS011;60594;50.204;8.844;2024-01-16T16:37:42;7.82;;;4.80;;
72569;SDS011;60594;50.204;8.844;2024-01-16T16:40:29;9.15;;;5.18;;
72569;SDS011;60594;50.204;8.844;2024-01-16T16:43:13;9.98;;;4.95;;
72569;SDS011;60594;50.204;8.844;2024-01-16T16:45:59;10.38;;;4.85;;
72569;SDS011;60594;50.204;8.844;2024-01-16T16:48:44;7.63;;;4.63;;
72569;SDS011;60594;50.204;8.844;2024-01-16T16:51:31;7.97;;;5.05;;
72569;SDS011;60594;50.204;8.844;2024-01-16T16:54:18;11.10;;;4.30;;